createdAt,value
2022-12-28T00:01:24.649Z,90.59
2022-12-28T00:03:52.756Z,90.70
2022-12-28T00:06:21.896Z,91.05
2022-12-28T00:08:48.350Z,90.78
2022-12-28T00:11:27.601Z,91.08
2022-12-28T00:13:58.025Z,90.35
2022-12-28T00:16:28.481Z,90.57
2022-12-28T00:18:57.520Z,90.67
2022-12-28T00:21:24.583Z,90.47
2022-12-28T00:23:52.808Z,90.45
2022-12-28T00:26:19.995Z,90.53
2022-12-28T00:28:46.870Z,90.05
2022-12-28T00:31:14.445Z,90.10
2022-12-28T00:33:41.152Z,89.69
2022-12-28T00:36:07.890Z,89.99
2022-12-28T00:38:37.435Z,89.50
2022-12-28T00:41:06.501Z,90.15
2022-12-28T00:43:33.092Z,89.23
2022-12-28T00:45:59.738Z,89.08
2022-12-28T00:48:26.304Z,89.30
2022-12-28T00:50:52.866Z,89.08
2022-12-28T00:53:19.518Z,89.34
2022-12-28T00:55:46.126Z,88.86
2022-12-28T00:58:12.568Z,88.91
2022-12-28T01:00:39.139Z,88.84
2022-12-28T01:03:05.703Z,88.30
2022-12-28T01:05:32.290Z,88.59
2022-12-28T01:07:58.782Z,88.42
2022-12-28T01:10:25.204Z,88.46
2022-12-28T01:12:51.660Z,87.98
2022-12-28T01:15:19.371Z,88.42
2022-12-28T01:17:46.751Z,88.85
2022-12-28T01:20:13.180Z,88.53
2022-12-28T01:22:39.796Z,88.58
2022-12-28T01:25:07.042Z,88.32
2022-12-28T01:27:37.019Z,88.08
2022-12-28T01:30:05.057Z,88.32
2022-12-28T01:32:31.567Z,88.68
2022-12-28T01:34:58.014Z,88.20
2022-12-28T01:37:24.422Z,88.36
2022-12-28T01:39:50.844Z,88.55
2022-12-28T01:42:19.454Z,88.85
2022-12-28T01:44:52.305Z,88.71
2022-12-28T01:47:26.673Z,88.85
2022-12-28T01:50:02.383Z,88.49
2022-12-28T01:52:44.878Z,88.50
2022-12-28T01:55:24.710Z,89.38
2022-12-28T01:58:01.288Z,89.14
2022-12-28T02:00:28.059Z,88.91
2022-12-28T02:03:02.210Z,89.07
2022-12-28T02:05:34.453Z,89.46
2022-12-28T02:08:13.479Z,89.12
2022-12-28T02:10:45.837Z,89.49
2022-12-28T02:13:15.565Z,89.33
2022-12-28T02:15:42.572Z,89.20
2022-12-28T02:18:09.908Z,89.57
2022-12-28T02:21:22.425Z,89.52
2022-12-28T02:24:30.176Z,89.14
2022-12-28T02:27:24.844Z,89.49
2022-12-28T02:30:08.192Z,88.77
2022-12-28T02:32:47.173Z,89.35
2022-12-28T02:35:30.193Z,89.18
2022-12-28T02:38:11.393Z,89.29
2022-12-28T02:40:45.401Z,89.05
2022-12-28T02:43:12.811Z,88.83
2022-12-28T02:46:05.929Z,89.57
2022-12-28T02:49:02.768Z,89.48
2022-12-28T02:51:41.157Z,89.06
2022-12-28T02:55:03.191Z,89.42
2022-12-28T02:58:06.759Z,89.95
2022-12-28T03:00:50.959Z,90.16
2022-12-28T03:03:23.338Z,90.02
2022-12-28T03:06:26.943Z,90.26
2022-12-28T03:09:21.202Z,90.46
2022-12-28T03:11:53.198Z,90.47
2022-12-28T03:14:26.496Z,90.31
2022-12-28T03:17:17.623Z,90.02
2022-12-28T03:20:15.395Z,90.44
2022-12-28T03:23:02.719Z,90.25
2022-12-28T03:25:53.068Z,89.78
2022-12-28T03:28:48.192Z,90.27
2022-12-28T03:31:19.859Z,90.26
2022-12-28T03:33:54.134Z,90.18
2022-12-28T03:36:20.585Z,90.14
2022-12-28T03:39:00.417Z,90.46
2022-12-28T03:41:41.495Z,90.20
2022-12-28T03:44:32.364Z,90.27
2022-12-28T03:47:18.889Z,90.16
2022-12-28T03:49:45.756Z,90.68
2022-12-28T03:52:12.949Z,90.54
2022-12-28T03:54:40.757Z,90.10
2022-12-28T03:57:08.417Z,90.30
2022-12-28T03:59:39.745Z,90.37
2022-12-28T04:02:07.235Z,90.45
2022-12-28T04:04:33.985Z,90.24
2022-12-28T04:07:00.715Z,89.83
2022-12-28T04:09:27.166Z,90.42
2022-12-28T04:11:54.120Z,90.24
2022-12-28T04:14:32.662Z,90.64
2022-12-28T04:16:59.127Z,90.79
2022-12-28T04:19:25.639Z,90.41
2022-12-28T04:21:52.125Z,90.62
2022-12-28T04:24:18.552Z,90.52
2022-12-28T04:26:45.008Z,90.24
2022-12-28T04:29:12.771Z,90.47
2022-12-28T04:31:46.862Z,90.68
2022-12-28T04:34:17.617Z,90.56
2022-12-28T04:36:54.173Z,90.36
2022-12-28T04:39:22.220Z,91.21
2022-12-28T04:41:48.707Z,90.92
2022-12-28T04:44:15.156Z,90.99
2022-12-28T04:46:41.618Z,91.09
2022-12-28T04:49:08.045Z,91.34
2022-12-28T04:51:35.313Z,91.37
2022-12-28T04:54:01.782Z,91.40
2022-12-28T04:56:28.260Z,91.88
2022-12-28T04:58:59.483Z,91.53
2022-12-28T05:01:26.519Z,91.31
2022-12-28T05:03:57.370Z,91.50
2022-12-28T05:06:27.412Z,91.75
2022-12-28T05:08:55.380Z,91.79
2022-12-28T05:11:24.760Z,91.93
2022-12-28T05:13:51.247Z,92.03
2022-12-28T05:16:20.416Z,92.10
2022-12-28T05:18:46.996Z,91.84
2022-12-28T05:21:16.647Z,91.97
2022-12-28T05:23:43.472Z,92.16
2022-12-28T05:26:13.217Z,92.12
2022-12-28T05:28:40.375Z,92.02
2022-12-28T05:31:10.794Z,92.58
2022-12-28T05:33:37.868Z,92.26
2022-12-28T05:36:05.092Z,92.16
2022-12-28T05:38:32.411Z,92.08
2022-12-28T05:41:26.353Z,92.60
2022-12-28T05:43:53.211Z,92.18
2022-12-28T05:46:24.553Z,92.57
2022-12-28T05:48:51.319Z,92.51
2022-12-28T05:51:21.444Z,92.08
2022-12-28T05:53:48.215Z,93.07
2022-12-28T05:56:18.105Z,92.85
2022-12-28T05:58:46.082Z,92.81
2022-12-28T06:01:17.686Z,92.99
2022-12-28T06:03:45.062Z,93.14
2022-12-28T06:06:17.471Z,92.81
2022-12-28T06:08:45.558Z,92.47
2022-12-28T06:11:15.274Z,92.98
2022-12-28T06:13:42.366Z,92.91
2022-12-28T06:16:20.482Z,92.70
2022-12-28T06:18:47.877Z,93.07
2022-12-28T06:21:16.842Z,93.15
2022-12-28T06:23:44.148Z,92.15
2022-12-28T06:26:13.192Z,92.28
2022-12-28T06:28:40.400Z,92.56
2022-12-28T06:31:08.451Z,93.24
2022-12-28T06:33:35.054Z,92.92
2022-12-28T06:36:02.014Z,92.69
2022-12-28T06:38:31.194Z,92.51
2022-12-28T06:41:13.263Z,92.34
2022-12-28T06:43:43.849Z,92.50
2022-12-28T06:46:12.287Z,92.60
2022-12-28T06:48:39.444Z,92.88
2022-12-28T06:51:14.503Z,92.59
2022-12-28T06:53:41.416Z,92.52
2022-12-28T06:56:11.827Z,91.98
2022-12-28T06:58:38.447Z,92.46
2022-12-28T07:01:19.481Z,92.04
2022-12-28T07:03:47.274Z,92.02
2022-12-28T07:06:16.341Z,92.70
2022-12-28T07:08:43.295Z,91.74
2022-12-28T07:11:17.754Z,91.74
2022-12-28T07:13:44.183Z,92.14
2022-12-28T07:16:15.612Z,91.79
2022-12-28T07:18:42.428Z,91.66
2022-12-28T07:21:15.704Z,91.46
2022-12-28T07:23:42.558Z,91.72
2022-12-28T07:26:14.783Z,91.27
2022-12-28T07:28:44.655Z,91.71
2022-12-28T07:31:13.799Z,91.49
2022-12-28T07:33:40.792Z,91.42
2022-12-28T07:36:08.498Z,91.37
2022-12-28T07:38:35.613Z,91.60
2022-12-28T07:41:07.677Z,90.99
2022-12-28T07:43:35.005Z,90.45
2022-12-28T07:46:10.895Z,91.01
2022-12-28T07:48:39.100Z,90.70
2022-12-28T07:51:27.127Z,90.32
2022-12-28T07:53:54.784Z,90.17
2022-12-28T07:56:22.997Z,90.28
2022-12-28T07:58:51.510Z,89.89
2022-12-28T08:01:19.990Z,89.94
2022-12-28T08:03:46.871Z,89.37
2022-12-28T08:06:19.967Z,89.90
2022-12-28T08:08:49.375Z,89.69
2022-12-28T08:11:21.826Z,89.94
2022-12-28T08:13:50.539Z,89.85
2022-12-28T08:16:19.489Z,89.72
2022-12-28T08:18:47.751Z,90.00
2022-12-28T08:21:18.929Z,89.38
2022-12-28T08:23:46.166Z,90.22
2022-12-28T08:26:14.206Z,90.00
2022-12-28T08:28:42.280Z,90.33
2022-12-28T08:31:12.228Z,90.16
2022-12-28T08:33:38.990Z,90.00
2022-12-28T08:36:06.597Z,89.83
2022-12-28T08:38:33.867Z,90.04
2022-12-28T08:41:02.641Z,90.66
2022-12-28T08:43:31.047Z,90.16
2022-12-28T08:46:06.861Z,90.21
2022-12-28T08:48:34.451Z,90.13
2022-12-28T08:51:03.528Z,90.04
2022-12-28T08:53:30.212Z,90.23
2022-12-28T08:56:06.385Z,90.12
2022-12-28T08:58:33.640Z,89.64
2022-12-28T09:01:18.061Z,90.07
2022-12-28T09:03:46.504Z,89.87
2022-12-28T09:06:15.654Z,89.69
2022-12-28T09:08:42.643Z,90.11
2022-12-28T09:11:13.494Z,90.33
2022-12-28T09:13:40.879Z,89.18
2022-12-28T09:16:10.539Z,90.28
2022-12-28T09:18:38.811Z,89.22
2022-12-28T09:21:11.894Z,89.71
2022-12-28T09:23:38.656Z,89.18
2022-12-28T09:26:16.976Z,89.96
2022-12-28T09:28:48.144Z,88.66
2022-12-28T09:31:15.470Z,88.96
2022-12-28T09:36:47.007Z,88.42
2022-12-28T09:39:17.426Z,88.95
2022-12-28T09:41:49.346Z,89.10
2022-12-28T09:44:37.827Z,88.05
2022-12-28T09:47:19.430Z,88.93
2022-12-28T09:49:49.649Z,87.68
2022-12-28T09:52:29.901Z,88.47
2022-12-28T09:55:03.921Z,87.21
2022-12-28T09:57:37.141Z,87.70
2022-12-28T10:00:06.537Z,86.62
2022-12-28T10:02:37.787Z,86.01
2022-12-28T10:05:05.235Z,86.25
2022-12-28T10:07:33.604Z,85.90
2022-12-28T10:10:00.201Z,85.90
2022-12-28T10:12:29.624Z,85.68
2022-12-28T10:14:57.251Z,86.26
2022-12-28T10:17:28.267Z,85.12
2022-12-28T10:19:57.862Z,84.08
2022-12-28T10:22:27.227Z,83.82
2022-12-28T10:24:54.146Z,83.12
2022-12-28T10:27:31.463Z,83.75
2022-12-28T10:30:01.275Z,81.94
2022-12-28T10:32:48.571Z,82.96
2022-12-28T10:35:23.598Z,82.88
2022-12-28T10:37:50.115Z,82.79
2022-12-28T10:40:28.318Z,82.07
2022-12-28T10:42:56.663Z,82.10
2022-12-28T10:45:33.570Z,82.18
2022-12-28T10:48:02.571Z,81.44
2022-12-28T10:50:47.767Z,81.24
2022-12-28T10:53:31.300Z,81.23
2022-12-28T10:56:02.930Z,80.41
2022-12-28T10:58:31.296Z,80.69
2022-12-28T11:01:12.581Z,79.72
2022-12-28T11:03:42.611Z,78.91
2022-12-28T11:06:10.208Z,78.20
2022-12-28T11:08:37.821Z,77.25
2022-12-28T11:11:04.341Z,76.77
2022-12-28T11:13:30.842Z,75.30
2022-12-28T11:15:57.485Z,74.45
2022-12-28T11:18:24.075Z,73.82
2022-12-28T11:20:53.128Z,73.37
2022-12-28T11:23:31.400Z,71.95
2022-12-28T11:25:59.191Z,71.80
2022-12-28T11:28:25.665Z,71.96
2022-12-28T11:30:52.531Z,71.56
2022-12-28T11:33:27.880Z,71.81
2022-12-28T11:35:59.615Z,71.52
2022-12-28T11:38:44.172Z,68.93
2022-12-28T11:41:33.440Z,68.34
2022-12-28T11:44:02.824Z,66.66
2022-12-28T11:46:35.104Z,66.63
2022-12-28T11:49:35.900Z,65.70
2022-12-28T11:52:14.698Z,65.36
2022-12-28T11:54:53.747Z,66.13
2022-12-28T11:57:36.463Z,66.38
2022-12-28T12:00:22.672Z,66.23
2022-12-28T12:02:56.523Z,66.67
2022-12-28T12:05:38.403Z,67.14
2022-12-28T12:08:16.907Z,68.02
2022-12-28T12:10:45.257Z,68.61
2022-12-28T12:13:23.701Z,68.91
2022-12-28T12:15:52.987Z,69.29
2022-12-28T12:18:25.528Z,69.82
2022-12-28T12:21:21.436Z,70.23
2022-12-28T12:23:52.080Z,70.39
2022-12-28T12:26:35.483Z,70.30
2022-12-28T12:29:14.628Z,70.44
2022-12-28T12:31:48.557Z,69.56
2022-12-28T12:34:46.286Z,69.00
2022-12-28T12:37:31.152Z,68.73
2022-12-28T12:40:09.788Z,68.74
2022-12-28T12:42:55.904Z,68.03
2022-12-28T12:45:31.084Z,68.27
2022-12-28T12:48:16.776Z,68.87
2022-12-28T12:50:57.611Z,69.18
2022-12-28T12:53:56.213Z,68.59
2022-12-28T12:56:35.311Z,68.88
2022-12-28T12:59:21.539Z,68.98
2022-12-28T13:02:12.371Z,69.40
2022-12-28T13:04:45.867Z,69.90
2022-12-28T13:07:22.119Z,70.34
2022-12-28T13:09:50.478Z,70.34
2022-12-28T13:12:18.944Z,70.38
2022-12-28T13:14:47.651Z,70.78
2022-12-28T13:17:19.392Z,71.53
2022-12-28T13:19:46.268Z,71.01
2022-12-28T13:22:33.742Z,71.13
2022-12-28T13:25:00.193Z,71.08
2022-12-28T13:27:35.389Z,71.54
2022-12-28T13:30:03.063Z,71.98
2022-12-28T13:32:38.268Z,71.95
2022-12-28T13:35:19.884Z,71.45
2022-12-28T13:38:09.671Z,71.91
2022-12-28T13:40:38.584Z,72.04
2022-12-28T13:43:13.469Z,72.89
2022-12-28T13:45:39.959Z,73.85
2022-12-28T13:48:08.249Z,73.59
2022-12-28T13:50:38.445Z,73.87
2022-12-28T13:53:11.507Z,74.86
2022-12-28T13:55:43.348Z,75.11
2022-12-28T13:58:14.453Z,75.68
2022-12-28T14:00:45.751Z,75.57
2022-12-28T14:03:13.091Z,75.74
2022-12-28T14:05:45.150Z,75.66
2022-12-28T14:08:11.791Z,75.80
2022-12-28T14:10:38.225Z,75.61
2022-12-28T14:13:04.953Z,76.19
2022-12-28T14:15:39.004Z,77.32
2022-12-28T14:18:08.430Z,76.52
2022-12-28T14:20:49.757Z,76.48
2022-12-28T14:23:20.243Z,77.72
2022-12-28T14:25:46.773Z,77.96
2022-12-28T14:28:31.740Z,77.21
2022-12-28T14:30:58.358Z,77.91
2022-12-28T14:33:27.774Z,78.28
2022-12-28T14:35:59.349Z,77.96
2022-12-28T14:38:32.751Z,79.05
2022-12-28T14:41:01.842Z,79.10
2022-12-28T14:43:32.489Z,79.01
2022-12-28T14:46:30.615Z,78.90
2022-12-28T14:48:57.609Z,79.65
2022-12-28T14:51:30.062Z,79.56
2022-12-28T14:54:17.403Z,80.12
2022-12-28T14:56:53.295Z,79.11
2022-12-28T14:59:25.162Z,80.22
2022-12-28T15:01:52.563Z,79.69
2022-12-28T15:04:28.178Z,79.44
2022-12-28T15:06:54.898Z,79.67
2022-12-28T15:09:21.646Z,80.13
2022-12-28T15:11:48.180Z,79.06
2022-12-28T15:14:14.598Z,79.35
2022-12-28T15:16:41.074Z,78.99
2022-12-28T15:19:07.509Z,79.96
2022-12-28T15:21:33.977Z,79.40
2022-12-28T15:24:00.459Z,79.63
2022-12-28T15:26:27.913Z,79.24
2022-12-28T15:28:54.416Z,79.69
2022-12-28T15:31:21.685Z,80.47
2022-12-28T15:33:48.615Z,80.03
2022-12-28T15:36:21.005Z,80.22
2022-12-28T15:38:48.456Z,79.92
2022-12-28T15:41:35.331Z,80.02
2022-12-28T15:44:02.633Z,80.54
2022-12-28T15:46:29.134Z,80.03
2022-12-28T15:48:55.662Z,80.54
2022-12-28T15:51:22.101Z,80.97
2022-12-28T15:53:48.586Z,80.44
2022-12-28T15:56:27.765Z,80.43
2022-12-28T15:58:56.380Z,81.34
2022-12-28T16:01:24.015Z,80.83
2022-12-28T16:03:55.113Z,81.83
2022-12-28T16:06:23.037Z,81.56
2022-12-28T16:08:52.968Z,80.69
2022-12-28T16:11:20.833Z,81.18
2022-12-28T16:13:52.339Z,81.29
2022-12-28T16:16:19.310Z,81.07
2022-12-28T16:18:45.882Z,81.70
2022-12-28T16:21:12.365Z,81.66
2022-12-28T16:23:42.049Z,81.73
2022-12-28T16:26:10.288Z,82.04
2022-12-28T16:28:37.179Z,81.90
2022-12-28T16:31:04.111Z,81.53
2022-12-28T16:33:31.108Z,81.61
2022-12-28T16:35:59.973Z,82.13
2022-12-28T16:38:28.602Z,81.41
2022-12-28T16:40:56.834Z,81.89
2022-12-28T16:43:23.855Z,82.09
2022-12-28T16:45:50.652Z,82.01
2022-12-28T16:48:17.133Z,81.63
2022-12-28T16:50:43.898Z,81.27
2022-12-28T16:53:10.428Z,81.88
2022-12-28T16:55:42.229Z,81.52
2022-12-28T16:58:09.872Z,82.12
2022-12-28T17:00:36.289Z,82.40
2022-12-28T17:03:02.832Z,81.89
2022-12-28T17:05:35.334Z,82.32
2022-12-28T17:08:03.211Z,82.21
2022-12-28T17:10:30.244Z,81.43
2022-12-28T17:12:57.365Z,81.92
2022-12-28T17:15:23.920Z,81.45
2022-12-28T17:17:50.364Z,81.85
2022-12-28T17:20:16.984Z,81.35
2022-12-28T17:22:43.433Z,81.00
2022-12-28T17:25:09.865Z,80.77
2022-12-28T17:27:36.369Z,80.49
2022-12-28T17:30:03.212Z,80.56
2022-12-28T17:32:29.593Z,80.42
2022-12-28T17:34:55.986Z,80.52
2022-12-28T17:37:22.420Z,80.63
2022-12-28T17:39:48.846Z,80.55
2022-12-28T17:42:15.476Z,80.56
2022-12-28T17:44:41.902Z,79.81
2022-12-28T17:47:08.495Z,80.58
2022-12-28T17:49:34.932Z,80.33
2022-12-28T17:52:01.346Z,80.51
2022-12-28T17:54:27.793Z,80.24
2022-12-28T17:56:54.179Z,80.54
2022-12-28T17:59:20.586Z,80.45
2022-12-28T18:01:47.076Z,79.32
2022-12-28T18:04:13.613Z,80.16
2022-12-28T18:06:40.374Z,80.36
2022-12-28T18:09:07.354Z,79.37
2022-12-28T18:11:33.822Z,80.43
2022-12-28T18:14:00.329Z,79.50
2022-12-28T18:16:27.395Z,79.90
2022-12-28T18:18:54.335Z,79.94
2022-12-28T18:21:23.121Z,79.16
2022-12-28T18:23:51.794Z,79.57
2022-12-28T18:26:26.263Z,79.92
2022-12-28T18:28:54.010Z,80.03
2022-12-28T18:31:20.900Z,79.22
2022-12-28T18:33:48.139Z,79.06
2022-12-28T18:36:17.810Z,78.85
2022-12-28T18:38:46.120Z,79.63
2022-12-28T18:41:15.384Z,79.52
2022-12-28T18:43:42.466Z,79.68
2022-12-28T18:46:09.701Z,79.49
2022-12-28T18:48:38.337Z,78.17
2022-12-28T18:51:08.369Z,78.27
2022-12-28T18:53:35.415Z,78.50
2022-12-28T18:56:05.236Z,77.97
2022-12-28T18:58:34.584Z,78.79
2022-12-28T19:01:06.189Z,78.43
2022-12-28T19:03:33.751Z,78.65
2022-12-28T19:06:03.308Z,78.45
2022-12-28T19:08:33.738Z,79.50
2022-12-28T19:11:01.600Z,79.56
2022-12-28T19:13:31.937Z,78.60
2022-12-28T19:15:58.353Z,79.45
2022-12-28T19:18:24.823Z,78.44
2022-12-28T19:20:58.622Z,78.40
2022-12-28T19:23:25.973Z,78.04
2022-12-28T19:25:54.604Z,79.07
2022-12-28T19:28:21.040Z,78.55
2022-12-28T19:30:47.449Z,79.19
2022-12-28T19:33:13.863Z,78.20
2022-12-28T19:35:40.388Z,79.80
2022-12-28T19:38:06.790Z,79.15
2022-12-28T19:40:33.182Z,78.31
2022-12-28T19:42:59.569Z,79.32
2022-12-28T19:45:25.977Z,79.81
2022-12-28T19:47:52.375Z,78.95
2022-12-28T19:50:18.825Z,79.01
2022-12-28T19:52:45.211Z,79.48
2022-12-28T19:55:11.633Z,79.42
2022-12-28T19:57:38.921Z,79.75
2022-12-28T20:00:07.666Z,79.29
2022-12-28T20:02:34.311Z,79.87
2022-12-28T20:05:00.859Z,78.38
2022-12-28T20:07:27.366Z,78.85
2022-12-28T20:09:53.778Z,79.01
2022-12-28T20:12:22.437Z,79.64
2022-12-28T20:14:49.433Z,78.60
2022-12-28T20:17:15.838Z,78.82
2022-12-28T20:19:42.260Z,78.20
2022-12-28T20:22:08.680Z,78.75
2022-12-28T20:24:35.147Z,78.30
2022-12-28T20:27:02.056Z,78.65
2022-12-28T20:29:28.708Z,78.44
2022-12-28T20:31:55.199Z,78.03
2022-12-28T20:34:21.645Z,77.70
2022-12-28T20:36:49.380Z,77.94
2022-12-28T20:39:15.822Z,77.63
2022-12-28T20:42:01.479Z,77.73
2022-12-28T20:44:32.282Z,78.17
2022-12-28T20:47:00.416Z,77.93
2022-12-28T20:49:27.765Z,78.08
2022-12-28T20:51:54.555Z,78.31
2022-12-28T20:54:21.349Z,77.52
2022-12-28T20:56:53.897Z,77.88
2022-12-28T20:59:21.515Z,77.01
2022-12-28T21:01:48.101Z,76.96
2022-12-28T21:04:14.906Z,77.04
2022-12-28T21:06:41.453Z,76.17
2022-12-28T21:09:07.953Z,76.75
2022-12-28T21:11:34.379Z,76.90
2022-12-28T21:14:00.798Z,76.51
2022-12-28T21:16:27.459Z,76.06
2022-12-28T21:18:53.993Z,76.18
2022-12-28T21:21:21.957Z,76.12
2022-12-28T21:23:48.694Z,76.22
2022-12-28T21:26:17.092Z,75.57
2022-12-28T21:28:44.137Z,75.48
2022-12-28T21:31:11.403Z,75.97
2022-12-28T21:33:38.781Z,75.58
2022-12-28T21:36:20.043Z,75.01
2022-12-28T21:38:47.826Z,75.85
2022-12-28T21:41:41.772Z,75.23
2022-12-28T21:44:12.839Z,75.42
2022-12-28T21:46:39.744Z,75.29
2022-12-28T21:49:06.946Z,74.65
2022-12-28T21:51:38.436Z,74.80
2022-12-28T21:54:11.876Z,75.54
2022-12-28T21:56:38.823Z,74.99
2022-12-28T21:59:06.113Z,74.20
2022-12-28T22:01:50.961Z,75.34
2022-12-28T22:04:38.556Z,74.42
2022-12-28T22:07:06.591Z,74.35
2022-12-28T22:09:52.207Z,74.06
2022-12-28T22:12:37.205Z,74.12
2022-12-28T22:15:31.568Z,73.50
2022-12-28T22:18:00.590Z,73.73
2022-12-28T22:20:28.354Z,73.84
2022-12-28T22:22:57.125Z,74.30
2022-12-28T22:25:24.561Z,74.54
2022-12-28T22:27:51.040Z,73.96
2022-12-28T22:30:17.932Z,74.06
2022-12-28T22:32:44.419Z,74.12
2022-12-28T22:35:11.149Z,74.74
2022-12-28T22:37:37.612Z,74.46
2022-12-28T22:40:05.463Z,74.20
2022-12-28T22:42:32.263Z,74.17
2022-12-28T22:44:58.873Z,73.65
2022-12-28T22:47:28.012Z,73.51
2022-12-28T22:49:54.794Z,74.01
2022-12-28T22:52:21.249Z,74.18
2022-12-28T22:54:47.802Z,74.38
2022-12-28T22:57:14.231Z,73.68
2022-12-28T22:59:40.675Z,74.35
2022-12-28T23:02:07.221Z,74.52
2022-12-28T23:04:33.870Z,73.80
2022-12-28T23:07:03.884Z,73.89
2022-12-28T23:09:31.421Z,74.46
2022-12-28T23:11:58.176Z,73.64
2022-12-28T23:14:43.610Z,74.40
2022-12-28T23:17:12.721Z,73.55
2022-12-28T23:19:58.196Z,73.66
2022-12-28T23:22:46.739Z,73.67
2022-12-28T23:25:37.416Z,73.15
2022-12-28T23:28:10.397Z,73.97
2022-12-28T23:30:41.943Z,74.36
2022-12-28T23:33:08.914Z,73.86
2022-12-28T23:35:35.359Z,73.49
2022-12-28T23:38:01.869Z,73.80
2022-12-28T23:40:28.316Z,73.40
2022-12-28T23:42:54.885Z,74.34
2022-12-28T23:45:21.484Z,73.81
2022-12-28T23:47:48.099Z,73.75
2022-12-28T23:50:16.486Z,73.95
2022-12-28T23:52:43.307Z,72.98
2022-12-28T23:55:10.453Z,73.58
2022-12-28T23:57:37.796Z,73.26
